Buttzville, NJ (07829)

7:24 AM EDT on October 24, 2014 (GMT -0400)
Rutherford Dr. | Change Station
CLOSE
Current Station
Personal Weather Station
Location: Belvidere, NJ
Elevation: 463 ft
Nearby Weather Stations

Elev 463 ft 40.84 °N, 75.01 °W | Updated 10 minutes ago

Overcast
Overcast
51.5 °F
Feels Like 51.5 °F
N
6.0
Wind Variable Wind from North
Gusts 17.0 mph

Today
High -- | Low -- °F
--% Chance of Precip.
Yesterday
High -- | Low -- °F
Precip. -- in
7:21 AM 6:06 PM
New Moon, 0% visible
Pressure 29.81 in
Visibility 10.0 miles
Clouds Overcast 2900 ft
Dew Point 45 °F
Humidity 79%
Rainfall 0.00 in
Snow Depth Not available.
UV 0 out of 12
Pollen 1.40 out of 12
Air Quality Not available.
Flu Activity Sporadic
METAR KSMQ 241053Z AUTO 32005KT 10SM OVC029 12/07 A2980 RMK AO2 SLP092 T01170067

More Conditions Fewer Conditions

Pressure 29.81 in
Visibility 10.0 miles
Clouds Overcast 2900 ft
Dew Point 45 °F
Humidity 79%
Rainfall 0.00 in
Snow Depth Not available.
UV 0 out of 12
Pollen 1.40 out of 12
Air Quality Not available.
Flu Activity Sporadic
METAR KSMQ 241053Z AUTO 32005KT 10SM OVC029 12/07 A2980 RMK AO2 SLP092 T01170067

More Conditions Fewer Conditions

10-Day Weather Forecast

Almanac

Astronomy

Oct. 24, 2014 Rise Set
Actual Time 7:21 AM EDT 6:06 PM EDT
Civil Twilight 6:53 AM EDT 6:34 PM EDT
Nautical Twilight 6:21 AM EDT 7:06 PM EDT
Astronomical Twilight 5:49 AM EDT 7:38 PM EDT
Moon 7:58 AM EDT 6:44 PM EDT
Length of Visible Light 11h 41m
Length of Day
10h 45m
Tomorrow will be 2m 30s shorter.
New Moon, 0% of the Moon is Illuminated
Today
New Moon
Oct 30
First Quarter
Nov 6
Full
Nov 14
Last Quarter
Nov 22
New

Today's Extremes

State Highs State Lows

Community

WunderPhotos

Upload Photos

1,764,525 photos uploaded!

WunderBlogs® & News

Nearby

Snow Depth

Station Depth Elevation
No new snow has been reported.

Earthquake Activity

City Distance Mag. Time & Date
No recent earthquake activity has been reported nearby.
Minimum magnitude displayed is 2.5.

Coastal Water Temperatures

Place Temperature
No Stations Reporting

Nearby Weather Stations